createdAt,value
2018-12-15T00:02:29.646Z,7.13
2018-12-15T00:05:36.430Z,7.27
2018-12-15T00:08:41.185Z,7.29
2018-12-15T00:11:45.938Z,7.06
2018-12-15T00:14:50.720Z,7.17
2018-12-15T00:17:55.453Z,6.71
2018-12-15T00:21:00.180Z,6.83
2018-12-15T00:24:04.913Z,6.72
2018-12-15T00:27:09.725Z,6.85
2018-12-15T00:30:14.870Z,6.85
2018-12-15T00:33:19.761Z,6.96
2018-12-15T00:36:24.518Z,7.10
2018-12-15T00:39:29.240Z,7.26
2018-12-15T00:42:34.873Z,7.25
2018-12-15T00:45:39.600Z,7.06
2018-12-15T00:48:44.350Z,7.06
2018-12-15T00:51:49.103Z,7.12
2018-12-15T00:54:53.825Z,7.17
2018-12-15T00:57:58.563Z,7.31
2018-12-15T01:01:03.368Z,7.28
2018-12-15T01:04:09.163Z,7.31
2018-12-15T01:07:13.957Z,7.40
2018-12-15T01:10:18.810Z,7.17
2018-12-15T01:13:23.593Z,7.35
2018-12-15T01:16:28.346Z,7.20
2018-12-15T01:19:34.147Z,7.27
2018-12-15T01:22:38.895Z,6.93
2018-12-15T01:25:43.621Z,7.22
2018-12-15T01:28:48.355Z,7.24
2018-12-15T01:31:53.135Z,7.36
2018-12-15T01:34:57.883Z,7.00
2018-12-15T01:38:02.575Z,6.96
2018-12-15T01:41:07.304Z,6.82
2018-12-15T01:44:12.093Z,6.93
2018-12-15T01:47:16.833Z,6.92
2018-12-15T01:50:21.556Z,7.05
2018-12-15T01:53:26.438Z,7.07
2018-12-15T01:56:31.276Z,6.98
2018-12-15T01:59:36.014Z,6.76
2018-12-15T02:02:40.851Z,6.99
2018-12-15T02:05:45.552Z,6.81
2018-12-15T02:08:50.832Z,6.74
2018-12-15T02:11:57.609Z,6.89
2018-12-15T02:15:02.368Z,6.98
2018-12-15T02:18:08.166Z,6.97
2018-12-15T02:21:12.938Z,7.05
2018-12-15T02:24:17.753Z,6.98
2018-12-15T02:27:22.493Z,7.08
2018-12-15T02:30:27.239Z,6.89
2018-12-15T02:33:31.955Z,6.95
2018-12-15T02:36:36.785Z,6.91
2018-12-15T02:39:41.557Z,6.88
2018-12-15T02:42:46.301Z,6.55
2018-12-15T02:45:51.049Z,6.67
2018-12-15T02:48:55.795Z,6.88
2018-12-15T02:52:00.542Z,7.00
2018-12-15T02:55:05.421Z,6.86
2018-12-15T02:58:10.167Z,6.92
2018-12-15T03:01:15.260Z,6.83
2018-12-15T03:04:20.022Z,6.96
2018-12-15T03:07:24.951Z,7.04
2018-12-15T03:10:29.672Z,7.03
2018-12-15T03:13:34.427Z,6.87
2018-12-15T03:16:43.439Z,6.98
2018-12-15T03:19:48.177Z,6.69
2018-12-15T03:22:52.873Z,6.85
2018-12-15T03:25:58.094Z,7.07
2018-12-15T03:29:02.895Z,7.05
2018-12-15T03:32:07.656Z,7.08
2018-12-15T03:35:12.530Z,7.17
2018-12-15T03:38:17.253Z,7.09
2018-12-15T03:41:21.989Z,6.97
2018-12-15T03:44:26.893Z,6.74
2018-12-15T03:47:31.625Z,6.87
2018-12-15T03:50:36.471Z,6.89
2018-12-15T03:53:41.209Z,7.03
2018-12-15T03:56:45.942Z,7.05
2018-12-15T03:59:50.944Z,6.97
2018-12-15T04:02:55.648Z,7.06
2018-12-15T04:06:00.392Z,7.13
2018-12-15T04:09:06.958Z,7.00
2018-12-15T04:12:12.773Z,6.95
2018-12-15T04:15:17.526Z,7.11
2018-12-15T04:18:22.255Z,7.02
2018-12-15T04:21:27.012Z,7.06
2018-12-15T04:24:31.714Z,7.14
2018-12-15T04:27:36.466Z,6.96
2018-12-15T04:30:43.258Z,7.07
2018-12-15T04:33:47.963Z,7.04
2018-12-15T04:36:52.703Z,6.67
2018-12-15T04:39:57.423Z,6.62
2018-12-15T04:43:02.485Z,6.76
2018-12-15T04:46:07.198Z,6.43
2018-12-15T04:49:11.917Z,6.67
2018-12-15T04:52:16.714Z,6.79
2018-12-15T04:55:21.607Z,6.69
2018-12-15T04:58:26.354Z,6.79
2018-12-15T05:01:31.121Z,6.68
2018-12-15T05:04:36.184Z,6.32
2018-12-15T05:07:40.910Z,6.39
2018-12-15T05:10:46.715Z,6.62
2018-12-15T05:13:51.452Z,6.68
2018-12-15T05:16:56.204Z,6.27
2018-12-15T05:20:01.015Z,6.17
2018-12-15T05:23:05.781Z,6.65
2018-12-15T05:26:10.533Z,6.79
2018-12-15T05:29:15.236Z,6.89
2018-12-15T05:32:19.952Z,6.94
2018-12-15T05:35:24.805Z,7.00
2018-12-15T05:38:29.523Z,6.89
2018-12-15T05:41:34.316Z,6.98
2018-12-15T05:44:39.031Z,7.07
2018-12-15T05:47:43.811Z,7.03
2018-12-15T05:50:48.545Z,6.93
2018-12-15T05:53:53.263Z,6.93
2018-12-15T05:56:58.167Z,7.12
2018-12-15T06:00:03.009Z,6.79
2018-12-15T06:03:07.929Z,7.03
2018-12-15T06:06:12.685Z,7.03
2018-12-15T06:09:17.421Z,6.99
2018-12-15T06:12:22.164Z,7.05
2018-12-15T06:15:26.972Z,7.00
2018-12-15T06:18:31.993Z,6.94
2018-12-15T06:21:36.811Z,6.89
2018-12-15T06:24:41.565Z,7.01
2018-12-15T06:27:46.311Z,6.90
2018-12-15T06:30:51.048Z,7.03
2018-12-15T06:33:55.861Z,7.11
2018-12-15T06:37:00.614Z,6.94
2018-12-15T06:40:06.509Z,7.14
2018-12-15T06:43:11.277Z,7.21
2018-12-15T06:46:16.018Z,6.98
2018-12-15T06:49:20.722Z,7.26
2018-12-15T06:52:25.476Z,7.15
2018-12-15T06:55:30.209Z,7.29
2018-12-15T06:58:35.005Z,7.31
2018-12-15T07:01:39.744Z,7.40
2018-12-15T07:04:44.448Z,7.33
2018-12-15T07:07:49.206Z,7.44
2018-12-15T07:10:54.032Z,7.40
2018-12-15T07:13:58.758Z,7.50
2018-12-15T07:17:03.486Z,7.41
2018-12-15T07:20:08.282Z,7.52
2018-12-15T07:23:13.102Z,6.61
2018-12-15T07:26:17.866Z,6.84
2018-12-15T07:29:22.661Z,7.14
2018-12-15T07:32:27.451Z,7.36
2018-12-15T07:35:32.298Z,7.36
2018-12-15T07:41:53.777Z,6.94
2018-12-15T07:44:58.548Z,7.36
2018-12-15T07:48:03.285Z,7.39
2018-12-15T07:51:08.045Z,7.37
2018-12-15T07:54:12.787Z,7.28
2018-12-15T07:57:17.557Z,7.38
2018-12-15T08:00:22.361Z,7.34
2018-12-15T08:03:27.137Z,7.47
2018-12-15T08:06:31.947Z,7.52
2018-12-15T08:09:36.741Z,7.54
2018-12-15T08:12:43.480Z,7.48
2018-12-15T08:15:48.219Z,7.64
2018-12-15T08:18:57.989Z,7.54
2018-12-15T08:21:59.797Z,7.40
2018-12-15T08:25:04.912Z,7.66
2018-12-15T08:28:09.665Z,7.66
2018-12-15T08:31:14.477Z,7.54
2018-12-15T08:34:19.217Z,7.40
2018-12-15T08:37:23.985Z,7.66
2018-12-15T08:40:28.738Z,7.68
2018-12-15T08:43:33.733Z,7.67
2018-12-15T08:46:38.481Z,7.69
2018-12-15T08:49:43.289Z,7.67
2018-12-15T08:52:48.090Z,7.68
2018-12-15T08:55:52.830Z,7.78
2018-12-15T08:58:57.713Z,7.68
2018-12-15T09:02:02.448Z,7.70
2018-12-15T09:05:07.255Z,7.50
2018-12-15T09:08:12.017Z,7.62
2018-12-15T09:11:16.924Z,7.70
2018-12-15T09:14:21.681Z,7.39
2018-12-15T09:17:26.486Z,7.71
2018-12-15T09:20:31.293Z,7.68
2018-12-15T09:23:36.048Z,7.68
2018-12-15T09:26:40.813Z,7.89
2018-12-15T09:29:45.601Z,7.91
2018-12-15T09:32:50.373Z,7.80
2018-12-15T09:35:55.294Z,7.98
2018-12-15T09:39:01.106Z,7.80
2018-12-15T09:42:07.910Z,7.81
2018-12-15T09:45:13.773Z,7.89
2018-12-15T09:48:18.539Z,7.93
2018-12-15T09:51:23.281Z,7.41
2018-12-15T09:54:28.125Z,7.76
2018-12-15T09:57:33.004Z,7.71
2018-12-15T10:00:37.784Z,7.51
2018-12-15T10:03:42.599Z,7.60
2018-12-15T10:06:47.345Z,7.67
2018-12-15T10:09:52.109Z,6.97
2018-12-15T10:12:56.874Z,7.52
2018-12-15T10:16:01.630Z,7.59
2018-12-15T10:19:06.474Z,7.47
2018-12-15T10:22:11.619Z,7.74
2018-12-15T10:25:16.377Z,7.66
2018-12-15T10:28:21.110Z,7.66
2018-12-15T10:31:31.080Z,7.84
2018-12-15T10:34:35.864Z,7.97
2018-12-15T10:37:40.698Z,7.79
2018-12-15T10:40:45.424Z,7.98
2018-12-15T10:43:50.364Z,8.10
2018-12-15T10:46:55.164Z,7.97
2018-12-15T10:50:01.979Z,8.26
2018-12-15T10:53:08.783Z,8.14
2018-12-15T10:56:15.578Z,8.30
2018-12-15T10:59:20.449Z,7.95
2018-12-15T11:02:26.627Z,8.18
2018-12-15T11:05:31.513Z,8.18
2018-12-15T11:08:36.459Z,8.13
2018-12-15T11:11:41.259Z,8.19
2018-12-15T11:14:47.405Z,7.76
2018-12-15T11:17:52.202Z,7.78
2018-12-15T11:20:56.958Z,7.74
2018-12-15T11:24:01.884Z,7.60
2018-12-15T11:27:08.142Z,7.50
2018-12-15T11:30:13.061Z,7.69
2018-12-15T11:33:17.933Z,7.52
2018-12-15T11:36:22.814Z,7.62
2018-12-15T11:39:27.679Z,7.81
2018-12-15T11:42:32.429Z,7.89
2018-12-15T11:45:37.169Z,7.70
2018-12-15T11:48:42.060Z,7.76
2018-12-15T11:51:46.843Z,8.03
2018-12-15T11:54:51.621Z,8.08
2018-12-15T11:57:56.373Z,8.21
2018-12-15T12:01:01.403Z,8.21
2018-12-15T12:04:08.188Z,8.24
2018-12-15T12:07:14.063Z,8.16
2018-12-15T12:10:18.832Z,8.31
2018-12-15T12:13:23.774Z,8.03
2018-12-15T12:16:28.641Z,8.12
2018-12-15T12:19:33.373Z,7.97
2018-12-15T12:22:38.091Z,8.08
2018-12-15T12:25:44.895Z,8.20
2018-12-15T12:28:51.673Z,8.29
2018-12-15T12:31:56.439Z,7.96
2018-12-15T12:35:01.192Z,8.21
2018-12-15T12:38:07.992Z,8.23
2018-12-15T12:41:12.777Z,8.20
2018-12-15T12:44:18.553Z,8.25
2018-12-15T12:47:23.314Z,8.26
2018-12-15T12:50:28.981Z,8.06
2018-12-15T12:53:34.267Z,8.14
2018-12-15T12:56:39.555Z,8.18
2018-12-15T12:59:44.740Z,8.28
2018-12-15T13:02:49.949Z,8.13
2018-12-15T13:05:55.177Z,8.31
2018-12-15T13:08:59.951Z,8.17
2018-12-15T13:12:04.677Z,8.17
2018-12-15T13:15:09.464Z,7.94
2018-12-15T13:18:14.178Z,7.97
2018-12-15T13:21:18.962Z,8.17
2018-12-15T13:24:23.683Z,8.10
2018-12-15T13:27:28.439Z,7.49
2018-12-15T13:30:33.188Z,7.77
2018-12-15T13:33:37.982Z,7.84
2018-12-15T13:36:42.773Z,7.65
2018-12-15T13:39:47.494Z,7.81
2018-12-15T13:42:52.250Z,7.94
2018-12-15T13:45:57.045Z,8.08
2018-12-15T13:49:01.805Z,8.02
2018-12-15T13:52:08.203Z,7.98
2018-12-15T13:55:13.411Z,8.20
2018-12-15T13:58:18.124Z,8.28
2018-12-15T14:01:22.874Z,8.00
2018-12-15T14:04:28.120Z,8.03
2018-12-15T14:07:32.870Z,7.97
2018-12-15T14:10:37.618Z,8.05
2018-12-15T14:13:43.468Z,8.03
2018-12-15T14:16:48.182Z,8.16
2018-12-15T14:19:52.948Z,8.24
2018-12-15T14:22:57.712Z,8.17
2018-12-15T14:26:05.561Z,8.10
2018-12-15T14:29:10.335Z,8.25
2018-12-15T14:32:15.049Z,8.05
2018-12-15T14:35:19.790Z,8.16
2018-12-15T14:38:24.659Z,7.67
2018-12-15T14:41:29.390Z,7.95
2018-12-15T14:44:34.154Z,7.80
2018-12-15T14:47:38.893Z,8.06
2018-12-15T14:50:43.619Z,8.26
2018-12-15T14:53:48.421Z,8.14
2018-12-15T14:56:53.248Z,8.19
2018-12-15T14:59:58.002Z,8.18
2018-12-15T15:03:02.793Z,8.25
2018-12-15T15:06:07.555Z,8.13
2018-12-15T15:09:12.332Z,8.17
2018-12-15T15:12:17.113Z,8.08
2018-12-15T15:15:21.861Z,7.78
2018-12-15T15:18:26.629Z,7.98
2018-12-15T15:21:31.474Z,7.78
2018-12-15T15:24:36.186Z,7.82
2018-12-15T15:27:40.952Z,7.76
2018-12-15T15:30:46.052Z,7.62
2018-12-15T15:33:50.821Z,7.87
2018-12-15T15:36:55.592Z,7.79
2018-12-15T15:40:00.518Z,7.99
2018-12-15T15:43:05.289Z,7.92
2018-12-15T15:46:10.067Z,8.11
2018-12-15T15:49:14.799Z,7.90
2018-12-15T15:52:19.621Z,7.96
2018-12-15T15:55:24.389Z,8.12
2018-12-15T15:58:29.291Z,8.14
2018-12-15T16:01:34.090Z,7.94
2018-12-15T16:04:39.098Z,8.08
2018-12-15T16:07:43.883Z,7.97
2018-12-15T16:10:48.654Z,8.07
2018-12-15T16:13:53.441Z,7.96
2018-12-15T16:16:58.486Z,8.16
2018-12-15T16:20:03.390Z,7.89
2018-12-15T16:23:08.108Z,7.86
2018-12-15T16:26:12.858Z,7.58
2018-12-15T16:29:24.068Z,7.64
2018-12-15T16:32:28.804Z,7.85
2018-12-15T16:35:33.638Z,7.90
2018-12-15T16:38:38.396Z,7.85
2018-12-15T16:41:43.151Z,7.81
2018-12-15T16:44:47.878Z,7.73
2018-12-15T16:47:52.688Z,7.95
2018-12-15T16:50:57.437Z,7.48
2018-12-15T16:54:03.360Z,7.81
2018-12-15T16:57:08.192Z,7.95
2018-12-15T17:00:15.183Z,7.92
2018-12-15T17:03:20.202Z,7.85
2018-12-15T17:06:25.008Z,7.81
2018-12-15T17:09:29.765Z,8.01
2018-12-15T17:12:34.625Z,7.78
2018-12-15T17:15:39.385Z,7.93
2018-12-15T17:18:45.930Z,7.88
2018-12-15T17:21:50.890Z,7.97
2018-12-15T17:24:55.870Z,7.85
2018-12-15T17:28:00.834Z,8.07
2018-12-15T17:31:06.090Z,7.98
2018-12-15T17:34:10.886Z,7.90
2018-12-15T17:37:15.882Z,7.78
2018-12-15T17:40:21.044Z,8.01
2018-12-15T17:43:26.245Z,7.76
2018-12-15T17:46:31.957Z,7.89
2018-12-15T17:49:36.772Z,7.53
2018-12-15T17:52:41.544Z,7.76
2018-12-15T17:55:47.525Z,7.74
2018-12-15T17:58:52.298Z,8.04
2018-12-15T18:01:57.082Z,8.19
2018-12-15T18:05:01.855Z,8.17
2018-12-15T18:08:07.723Z,7.95
2018-12-15T18:11:12.505Z,8.08
2018-12-15T18:14:19.370Z,8.21
2018-12-15T18:17:24.150Z,8.33
2018-12-15T18:20:28.915Z,8.36
2018-12-15T18:23:33.929Z,8.45
2018-12-15T18:26:38.710Z,8.45
2018-12-15T18:29:43.715Z,8.40
2018-12-15T18:32:48.486Z,8.06
2018-12-15T18:35:53.557Z,8.18
2018-12-15T18:38:58.326Z,8.09
2018-12-15T18:42:03.134Z,8.13
2018-12-15T18:45:08.398Z,7.97
2018-12-15T18:48:13.177Z,8.18
2018-12-15T18:51:18.235Z,8.06
2018-12-15T18:54:23.218Z,8.28
2018-12-15T18:57:28.060Z,7.78
2018-12-15T19:00:32.878Z,8.11
2018-12-15T19:03:37.829Z,8.00
2018-12-15T19:06:42.626Z,8.30
2018-12-15T19:09:47.444Z,7.79
2018-12-15T19:12:52.351Z,8.18
2018-12-15T19:15:57.187Z,7.85
2018-12-15T19:19:01.994Z,7.68
2018-12-15T19:22:06.973Z,7.72
2018-12-15T19:25:12.253Z,7.89
2018-12-15T19:28:17.270Z,8.12
2018-12-15T19:31:22.028Z,7.89
2018-12-15T19:34:26.811Z,8.02
2018-12-15T19:37:32.867Z,8.09
2018-12-15T19:40:37.645Z,8.26
2018-12-15T19:43:42.553Z,8.10
2018-12-15T19:46:47.357Z,8.21
2018-12-15T19:49:52.131Z,8.21
2018-12-15T19:52:57.925Z,8.31
2018-12-15T19:56:02.694Z,8.33
2018-12-15T19:59:09.711Z,8.40
2018-12-15T20:02:14.489Z,8.34
2018-12-15T20:05:19.306Z,8.36
2018-12-15T20:08:24.093Z,8.36
2018-12-15T20:11:28.889Z,8.41
2018-12-15T20:14:33.666Z,8.46
2018-12-15T20:17:38.612Z,8.20
2018-12-15T20:20:43.381Z,8.24
2018-12-15T20:23:48.132Z,8.36
2018-12-15T20:26:52.942Z,8.09
2018-12-15T20:29:57.743Z,8.13
2018-12-15T20:33:02.545Z,8.09
2018-12-15T20:36:07.315Z,8.06
2018-12-15T20:39:12.086Z,8.09
2018-12-15T20:42:16.857Z,8.14
2018-12-15T20:45:21.670Z,8.16
2018-12-15T20:48:26.409Z,8.20
2018-12-15T20:51:31.206Z,8.26
2018-12-15T20:54:35.969Z,8.20
2018-12-15T20:57:40.700Z,8.00
2018-12-15T21:00:45.471Z,8.07
2018-12-15T21:03:50.193Z,8.13
2018-12-15T21:06:54.971Z,7.90
2018-12-15T21:09:59.738Z,7.77
2018-12-15T21:13:04.658Z,8.08
2018-12-15T21:16:09.581Z,8.09
2018-12-15T21:19:14.329Z,8.11
2018-12-15T21:22:20.457Z,7.60
2018-12-15T21:25:25.389Z,7.36
2018-12-15T21:28:30.306Z,7.90
2018-12-15T21:31:35.090Z,7.95
2018-12-15T21:34:39.845Z,7.98
2018-12-15T21:37:44.643Z,8.01
2018-12-15T21:40:49.394Z,8.02
2018-12-15T21:43:54.134Z,7.99
2018-12-15T21:46:58.906Z,8.04
2018-12-15T21:50:03.824Z,8.11
2018-12-15T21:53:08.600Z,8.23
2018-12-15T21:56:13.345Z,8.24
2018-12-15T21:59:18.113Z,8.41
2018-12-15T22:02:22.852Z,8.06
2018-12-15T22:05:27.646Z,8.34
2018-12-15T22:08:32.474Z,8.33
2018-12-15T22:11:37.213Z,8.02
2018-12-15T22:14:42.183Z,8.19
2018-12-15T22:17:46.971Z,8.31
2018-12-15T22:20:52.034Z,7.98
2018-12-15T22:23:56.847Z,8.25
2018-12-15T22:27:01.574Z,8.09
2018-12-15T22:30:07.429Z,8.17
2018-12-15T22:33:12.190Z,8.06
2018-12-15T22:36:16.942Z,8.12
2018-12-15T22:39:21.667Z,8.17
2018-12-15T22:42:26.422Z,8.22
2018-12-15T22:45:31.312Z,8.02
2018-12-15T22:48:36.075Z,8.13
2018-12-15T22:51:40.949Z,7.94
2018-12-15T22:54:45.701Z,8.20
2018-12-15T22:57:50.478Z,8.16
2018-12-15T23:01:01.376Z,8.13
2018-12-15T23:04:08.159Z,8.21
2018-12-15T23:07:12.914Z,8.26
2018-12-15T23:10:17.653Z,8.21
2018-12-15T23:13:22.394Z,8.10
2018-12-15T23:16:27.317Z,8.16
2018-12-15T23:19:32.043Z,8.18
2018-12-15T23:22:36.794Z,7.93
2018-12-15T23:25:41.534Z,8.07
2018-12-15T23:28:48.196Z,7.94
2018-12-15T23:31:52.927Z,8.00
2018-12-15T23:34:57.688Z,8.07
2018-12-15T23:38:02.455Z,7.95
2018-12-15T23:41:07.225Z,7.81
2018-12-15T23:44:11.960Z,7.99
2018-12-15T23:47:16.722Z,7.91
2018-12-15T23:50:21.782Z,7.86
2018-12-15T23:53:26.543Z,7.96
2018-12-15T23:56:31.280Z,7.86
2018-12-15T23:59:36.042Z,8.06
